sensor_id;sensor_type;location;lat;lon;timestamp;temperature;humidity
3416;DHT22;1721;51.238;9.562;2022-09-25T00:01:22;16.20;94.60
3416;DHT22;1721;51.238;9.562;2022-09-25T00:03:48;16.20;94.70
3416;DHT22;1721;51.238;9.562;2022-09-25T00:06:20;16.20;94.70
3416;DHT22;1721;51.238;9.562;2022-09-25T00:08:47;16.10;94.80
3416;DHT22;1721;51.238;9.562;2022-09-25T00:11:19;16.10;94.80
3416;DHT22;1721;51.238;9.562;2022-09-25T00:13:45;16.10;94.80
3416;DHT22;1721;51.238;9.562;2022-09-25T00:16:14;16.10;94.70
3416;DHT22;1721;51.238;9.562;2022-09-25T00:18:40;16.10;94.70
3416;DHT22;1721;51.238;9.562;2022-09-25T00:21:30;16.10;94.50
3416;DHT22;1721;51.238;9.562;2022-09-25T00:23:57;16.10;94.40
3416;DHT22;1721;51.238;9.562;2022-09-25T00:26:26;16.00;94.40
3416;DHT22;1721;51.238;9.562;2022-09-25T00:28:53;15.90;94.60
3416;DHT22;1721;51.238;9.562;2022-09-25T00:31:21;15.90;94.50
3416;DHT22;1721;51.238;9.562;2022-09-25T00:33:55;15.90;94.40
3416;DHT22;1721;51.238;9.562;2022-09-25T00:36:21;15.80;94.70
3416;DHT22;1721;51.238;9.562;2022-09-25T00:38:47;15.80;94.70
3416;DHT22;1721;51.238;9.562;2022-09-25T00:41:14;15.80;94.70
3416;DHT22;1721;51.238;9.562;2022-09-25T00:43:47;15.70;94.50
3416;DHT22;1721;51.238;9.562;2022-09-25T00:46:34;15.70;94.90
3416;DHT22;1721;51.238;9.562;2022-09-25T00:49:24;15.70;94.70
3416;DHT22;1721;51.238;9.562;2022-09-25T00:51:55;15.80;94.60
3416;DHT22;1721;51.238;9.562;2022-09-25T00:56:51;15.80;94.50
3416;DHT22;1721;51.238;9.562;2022-09-25T00:59:21;15.70;94.40
3416;DHT22;1721;51.238;9.562;2022-09-25T01:01:47;15.60;94.90
3416;DHT22;1721;51.238;9.562;2022-09-25T01:04:13;15.60;94.90
3416;DHT22;1721;51.238;9.562;2022-09-25T01:06:40;15.70;94.70
3416;DHT22;1721;51.238;9.562;2022-09-25T01:09:06;15.80;94.60
3416;DHT22;1721;51.238;9.562;2022-09-25T01:11:32;15.80;94.60
3416;DHT22;1721;51.238;9.562;2022-09-25T01:14:00;15.80;94.50
3416;DHT22;1721;51.238;9.562;2022-09-25T01:22:14;15.70;94.60
3416;DHT22;1721;51.238;9.562;2022-09-25T01:28:11;15.80;94.70
3416;DHT22;1721;51.238;9.562;2022-09-25T01:30:43;15.80;94.70
3416;DHT22;1721;51.238;9.562;2022-09-25T01:33:16;15.90;94.60
3416;DHT22;1721;51.238;9.562;2022-09-25T01:35:58;15.80;94.60
3416;DHT22;1721;51.238;9.562;2022-09-25T01:38:33;15.80;94.60
3416;DHT22;1721;51.238;9.562;2022-09-25T01:41:31;15.80;94.70
3416;DHT22;1721;51.238;9.562;2022-09-25T01:44:05;15.90;94.60
3416;DHT22;1721;51.238;9.562;2022-09-25T01:46:38;15.90;94.60
3416;DHT22;1721;51.238;9.562;2022-09-25T01:49:16;15.90;94.50
3416;DHT22;1721;51.238;9.562;2022-09-25T01:51:51;15.90;94.60
3416;DHT22;1721;51.238;9.562;2022-09-25T01:54:21;16.00;94.60
3416;DHT22;1721;51.238;9.562;2022-09-25T01:57:23;15.90;94.60
3416;DHT22;1721;51.238;9.562;2022-09-25T02:00:00;15.90;94.70
3416;DHT22;1721;51.238;9.562;2022-09-25T02:02:32;15.90;94.60
3416;DHT22;1721;51.238;9.562;2022-09-25T02:05:08;15.90;94.80
3416;DHT22;1721;51.238;9.562;2022-09-25T02:07:40;15.90;94.70
3416;DHT22;1721;51.238;9.562;2022-09-25T02:10:14;16.00;94.70
3416;DHT22;1721;51.238;9.562;2022-09-25T02:12:47;16.00;94.60
3416;DHT22;1721;51.238;9.562;2022-09-25T02:15:43;16.00;94.60
3416;DHT22;1721;51.238;9.562;2022-09-25T02:18:15;16.00;94.50
3416;DHT22;1721;51.238;9.562;2022-09-25T02:21:30;16.10;94.50
3416;DHT22;1721;51.238;9.562;2022-09-25T02:24:20;16.10;94.60
3416;DHT22;1721;51.238;9.562;2022-09-25T02:26:49;16.10;94.50
3416;DHT22;1721;51.238;9.562;2022-09-25T02:29:15;16.10;94.50
3416;DHT22;1721;51.238;9.562;2022-09-25T02:31:45;16.10;94.50
3416;DHT22;1721;51.238;9.562;2022-09-25T02:34:12;16.10;94.50
3416;DHT22;1721;51.238;9.562;2022-09-25T02:36:38;16.10;94.60
3416;DHT22;1721;51.238;9.562;2022-09-25T02:39:05;16.20;94.50
3416;DHT22;1721;51.238;9.562;2022-09-25T02:47:51;16.20;94.40
3416;DHT22;1721;51.238;9.562;2022-09-25T02:50:44;16.20;94.50
3416;DHT22;1721;51.238;9.562;2022-09-25T02:53:31;16.30;94.40
3416;DHT22;1721;51.238;9.562;2022-09-25T02:58:53;16.20;94.50
3416;DHT22;1721;51.238;9.562;2022-09-25T03:01:22;16.10;94.50
3416;DHT22;1721;51.238;9.562;2022-09-25T03:03:51;16.10;94.50
3416;DHT22;1721;51.238;9.562;2022-09-25T03:06:19;16.10;94.60
3416;DHT22;1721;51.238;9.562;2022-09-25T03:08:47;16.10;94.50
3416;DHT22;1721;51.238;9.562;2022-09-25T03:11:18;16.10;94.60
3416;DHT22;1721;51.238;9.562;2022-09-25T03:13:44;16.00;94.60
3416;DHT22;1721;51.238;9.562;2022-09-25T03:18:38;16.00;94.60
3416;DHT22;1721;51.238;9.562;2022-09-25T03:21:04;16.00;94.80
3416;DHT22;1721;51.238;9.562;2022-09-25T03:23:30;16.00;94.80
3416;DHT22;1721;51.238;9.562;2022-09-25T03:25:57;16.00;94.80
3416;DHT22;1721;51.238;9.562;2022-09-25T03:28:23;16.00;94.80
3416;DHT22;1721;51.238;9.562;2022-09-25T03:31:00;15.90;94.90
3416;DHT22;1721;51.238;9.562;2022-09-25T03:33:27;16.00;94.90
3416;DHT22;1721;51.238;9.562;2022-09-25T03:38:35;16.00;94.80
3416;DHT22;1721;51.238;9.562;2022-09-25T03:41:01;15.90;94.90
3416;DHT22;1721;51.238;9.562;2022-09-25T03:43:28;15.90;94.90
3416;DHT22;1721;51.238;9.562;2022-09-25T03:46:05;15.90;94.90
3416;DHT22;1721;51.238;9.562;2022-09-25T03:48:32;15.80;95.00
3416;DHT22;1721;51.238;9.562;2022-09-25T03:50:58;15.80;95.00
3416;DHT22;1721;51.238;9.562;2022-09-25T03:53:25;15.70;95.10
3416;DHT22;1721;51.238;9.562;2022-09-25T03:55:52;15.70;95.10
3416;DHT22;1721;51.238;9.562;2022-09-25T03:58:17;15.80;95.30
3416;DHT22;1721;51.238;9.562;2022-09-25T04:00:44;15.70;95.20
3416;DHT22;1721;51.238;9.562;2022-09-25T04:03:11;15.70;95.40
3416;DHT22;1721;51.238;9.562;2022-09-25T04:05:37;15.70;95.40
3416;DHT22;1721;51.238;9.562;2022-09-25T04:08:02;15.80;95.50
3416;DHT22;1721;51.238;9.562;2022-09-25T04:10:29;15.80;95.40
3416;DHT22;1721;51.238;9.562;2022-09-25T04:12:54;15.80;95.30
3416;DHT22;1721;51.238;9.562;2022-09-25T04:15:23;15.70;95.30
3416;DHT22;1721;51.238;9.562;2022-09-25T04:17:50;15.70;95.20
3416;DHT22;1721;51.238;9.562;2022-09-25T04:20:18;15.70;95.30
3416;DHT22;1721;51.238;9.562;2022-09-25T04:22:44;15.80;95.20
3416;DHT22;1721;51.238;9.562;2022-09-25T04:25:10;15.80;95.10
3416;DHT22;1721;51.238;9.562;2022-09-25T04:27:36;15.80;95.20
3416;DHT22;1721;51.238;9.562;2022-09-25T04:30:03;15.70;95.20
3416;DHT22;1721;51.238;9.562;2022-09-25T04:32:29;15.70;95.20
3416;DHT22;1721;51.238;9.562;2022-09-25T04:35:13;15.80;95.20
3416;DHT22;1721;51.238;9.562;2022-09-25T04:37:39;15.70;95.10
3416;DHT22;1721;51.238;9.562;2022-09-25T04:40:05;15.70;95.20
3416;DHT22;1721;51.238;9.562;2022-09-25T04:42:31;15.70;95.30
3416;DHT22;1721;51.238;9.562;2022-09-25T04:44:56;15.70;95.20
3416;DHT22;1721;51.238;9.562;2022-09-25T04:47:25;15.70;95.20
3416;DHT22;1721;51.238;9.562;2022-09-25T04:49:51;15.70;95.20
3416;DHT22;1721;51.238;9.562;2022-09-25T04:52:17;15.70;95.20
3416;DHT22;1721;51.238;9.562;2022-09-25T04:54:44;15.70;95.20
3416;DHT22;1721;51.238;9.562;2022-09-25T04:57:17;15.70;95.10
3416;DHT22;1721;51.238;9.562;2022-09-25T04:59:43;15.60;95.00
3416;DHT22;1721;51.238;9.562;2022-09-25T05:02:09;15.60;95.10
3416;DHT22;1721;51.238;9.562;2022-09-25T05:04:35;15.50;95.00
3416;DHT22;1721;51.238;9.562;2022-09-25T05:07:00;15.50;95.20
3416;DHT22;1721;51.238;9.562;2022-09-25T05:09:26;15.40;95.20
3416;DHT22;1721;51.238;9.562;2022-09-25T05:11:51;15.40;95.30
3416;DHT22;1721;51.238;9.562;2022-09-25T05:14:17;15.40;95.20
3416;DHT22;1721;51.238;9.562;2022-09-25T05:16:45;15.40;95.30
3416;DHT22;1721;51.238;9.562;2022-09-25T05:19:11;15.30;95.30
3416;DHT22;1721;51.238;9.562;2022-09-25T05:21:36;15.40;95.40
3416;DHT22;1721;51.238;9.562;2022-09-25T05:24:02;15.40;95.30
3416;DHT22;1721;51.238;9.562;2022-09-25T05:26:28;15.40;95.40
3416;DHT22;1721;51.238;9.562;2022-09-25T05:28:54;15.40;95.30
3416;DHT22;1721;51.238;9.562;2022-09-25T05:31:20;15.40;95.30
3416;DHT22;1721;51.238;9.562;2022-09-25T05:33:45;15.40;95.40
3416;DHT22;1721;51.238;9.562;2022-09-25T05:36:11;15.50;95.30
3416;DHT22;1721;51.238;9.562;2022-09-25T05:38:38;15.50;95.40
3416;DHT22;1721;51.238;9.562;2022-09-25T05:41:06;15.50;95.20
3416;DHT22;1721;51.238;9.562;2022-09-25T05:43:32;15.50;95.10
3416;DHT22;1721;51.238;9.562;2022-09-25T05:45:59;15.50;95.10
3416;DHT22;1721;51.238;9.562;2022-09-25T05:48:25;15.50;95.20
3416;DHT22;1721;51.238;9.562;2022-09-25T05:50:54;15.50;95.30
3416;DHT22;1721;51.238;9.562;2022-09-25T05:53:21;15.50;95.30
3416;DHT22;1721;51.238;9.562;2022-09-25T05:56:00;15.50;95.20
3416;DHT22;1721;51.238;9.562;2022-09-25T05:58:28;15.60;95.20
3416;DHT22;1721;51.238;9.562;2022-09-25T06:00:54;15.50;95.00
3416;DHT22;1721;51.238;9.562;2022-09-25T06:03:20;15.50;95.00
3416;DHT22;1721;51.238;9.562;2022-09-25T06:05:46;15.50;95.10
3416;DHT22;1721;51.238;9.562;2022-09-25T06:08:13;15.50;95.20
3416;DHT22;1721;51.238;9.562;2022-09-25T06:10:40;15.50;95.00
3416;DHT22;1721;51.238;9.562;2022-09-25T06:13:05;15.50;95.20
3416;DHT22;1721;51.238;9.562;2022-09-25T06:15:35;15.50;95.30
3416;DHT22;1721;51.238;9.562;2022-09-25T06:18:05;15.60;95.30
3416;DHT22;1721;51.238;9.562;2022-09-25T06:20:32;15.70;95.30
3416;DHT22;1721;51.238;9.562;2022-09-25T06:22:58;15.70;95.10
3416;DHT22;1721;51.238;9.562;2022-09-25T06:25:28;15.60;95.00
3416;DHT22;1721;51.238;9.562;2022-09-25T06:27:59;15.70;94.90
3416;DHT22;1721;51.238;9.562;2022-09-25T06:30:27;15.60;94.90
3416;DHT22;1721;51.238;9.562;2022-09-25T06:32:56;15.70;94.70
3416;DHT22;1721;51.238;9.562;2022-09-25T06:35:22;15.60;94.90
3416;DHT22;1721;51.238;9.562;2022-09-25T06:37:47;15.40;94.80
3416;DHT22;1721;51.238;9.562;2022-09-25T06:40:13;15.30;95.00
3416;DHT22;1721;51.238;9.562;2022-09-25T06:42:38;15.40;95.00
3416;DHT22;1721;51.238;9.562;2022-09-25T06:45:04;15.50;95.00
3416;DHT22;1721;51.238;9.562;2022-09-25T06:47:30;15.50;94.80
3416;DHT22;1721;51.238;9.562;2022-09-25T06:49:55;15.50;94.80
3416;DHT22;1721;51.238;9.562;2022-09-25T06:52:21;15.50;94.70
3416;DHT22;1721;51.238;9.562;2022-09-25T06:54:46;15.50;94.80
3416;DHT22;1721;51.238;9.562;2022-09-25T06:57:12;15.60;94.40
3416;DHT22;1721;51.238;9.562;2022-09-25T06:59:38;15.60;94.40
3416;DHT22;1721;51.238;9.562;2022-09-25T07:02:03;15.60;94.50
3416;DHT22;1721;51.238;9.562;2022-09-25T07:04:47;15.60;94.40
3416;DHT22;1721;51.238;9.562;2022-09-25T07:07:17;15.50;94.70
3416;DHT22;1721;51.238;9.562;2022-09-25T07:09:47;15.50;94.70
3416;DHT22;1721;51.238;9.562;2022-09-25T07:12:13;15.50;94.50
3416;DHT22;1721;51.238;9.562;2022-09-25T07:14:39;15.40;94.60
3416;DHT22;1721;51.238;9.562;2022-09-25T07:17:08;15.30;94.90
3416;DHT22;1721;51.238;9.562;2022-09-25T07:19:33;15.40;94.80
3416;DHT22;1721;51.238;9.562;2022-09-25T07:21:59;15.40;94.70
3416;DHT22;1721;51.238;9.562;2022-09-25T07:24:24;15.50;94.60
3416;DHT22;1721;51.238;9.562;2022-09-25T07:26:50;15.60;94.50
3416;DHT22;1721;51.238;9.562;2022-09-25T07:29:17;15.60;94.40
3416;DHT22;1721;51.238;9.562;2022-09-25T07:31:42;15.60;94.60
3416;DHT22;1721;51.238;9.562;2022-09-25T07:34:08;15.70;94.30
3416;DHT22;1721;51.238;9.562;2022-09-25T07:36:37;15.60;94.60
3416;DHT22;1721;51.238;9.562;2022-09-25T07:39:03;15.60;94.60
3416;DHT22;1721;51.238;9.562;2022-09-25T07:41:29;15.60;94.60
3416;DHT22;1721;51.238;9.562;2022-09-25T07:43:56;15.70;94.40
3416;DHT22;1721;51.238;9.562;2022-09-25T07:46:26;15.60;94.60
3416;DHT22;1721;51.238;9.562;2022-09-25T07:48:53;15.60;94.00
3416;DHT22;1721;51.238;9.562;2022-09-25T07:51:19;15.60;93.90
3416;DHT22;1721;51.238;9.562;2022-09-25T07:53:48;15.60;93.70
3416;DHT22;1721;51.238;9.562;2022-09-25T07:56:14;15.50;94.00
3416;DHT22;1721;51.238;9.562;2022-09-25T07:58:40;15.50;94.00
3416;DHT22;1721;51.238;9.562;2022-09-25T08:01:10;15.50;94.20
3416;DHT22;1721;51.238;9.562;2022-09-25T08:03:36;15.60;94.00
3416;DHT22;1721;51.238;9.562;2022-09-25T08:06:04;15.60;94.00
3416;DHT22;1721;51.238;9.562;2022-09-25T08:08:33;15.80;93.60
3416;DHT22;1721;51.238;9.562;2022-09-25T08:11:00;15.80;93.40
3416;DHT22;1721;51.238;9.562;2022-09-25T08:13:27;15.80;93.60
3416;DHT22;1721;51.238;9.562;2022-09-25T08:15:53;15.80;93.50
3416;DHT22;1721;51.238;9.562;2022-09-25T08:18:19;15.80;93.30
3416;DHT22;1721;51.238;9.562;2022-09-25T08:20:44;15.80;93.40
3416;DHT22;1721;51.238;9.562;2022-09-25T08:23:10;15.80;93.60
3416;DHT22;1721;51.238;9.562;2022-09-25T08:25:36;15.80;93.50
3416;DHT22;1721;51.238;9.562;2022-09-25T08:28:02;15.80;93.40
3416;DHT22;1721;51.238;9.562;2022-09-25T08:30:27;15.80;93.50
3416;DHT22;1721;51.238;9.562;2022-09-25T08:32:53;15.80;93.50
3416;DHT22;1721;51.238;9.562;2022-09-25T08:35:19;15.80;93.30
3416;DHT22;1721;51.238;9.562;2022-09-25T08:37:46;15.70;93.40
3416;DHT22;1721;51.238;9.562;2022-09-25T08:40:17;15.70;93.30
3416;DHT22;1721;51.238;9.562;2022-09-25T08:42:45;15.80;93.20
3416;DHT22;1721;51.238;9.562;2022-09-25T08:45:28;15.70;93.30
3416;DHT22;1721;51.238;9.562;2022-09-25T08:48:24;15.80;93.10
3416;DHT22;1721;51.238;9.562;2022-09-25T08:51:09;15.80;93.50
3416;DHT22;1721;51.238;9.562;2022-09-25T08:53:36;15.80;93.50
3416;DHT22;1721;51.238;9.562;2022-09-25T08:56:03;15.70;93.30
3416;DHT22;1721;51.238;9.562;2022-09-25T08:59:02;15.70;93.40
3416;DHT22;1721;51.238;9.562;2022-09-25T09:04:13;15.80;93.20
3416;DHT22;1721;51.238;9.562;2022-09-25T09:06:41;15.70;93.20
3416;DHT22;1721;51.238;9.562;2022-09-25T09:09:15;15.60;93.20
3416;DHT22;1721;51.238;9.562;2022-09-25T09:11:51;15.70;93.40
3416;DHT22;1721;51.238;9.562;2022-09-25T09:14:21;15.80;93.10
3416;DHT22;1721;51.238;9.562;2022-09-25T09:17:10;15.70;93.40
3416;DHT22;1721;51.238;9.562;2022-09-25T09:19:37;15.80;93.40
3416;DHT22;1721;51.238;9.562;2022-09-25T09:22:11;16.00;93.30
3416;DHT22;1721;51.238;9.562;2022-09-25T09:40:50;16.30;92.40
3416;DHT22;1721;51.238;9.562;2022-09-25T09:49:17;16.60;92.20
3416;DHT22;1721;51.238;9.562;2022-09-25T09:54:19;16.70;91.60
3416;DHT22;1721;51.238;9.562;2022-09-25T09:56:50;16.80;91.70
3416;DHT22;1721;51.238;9.562;2022-09-25T09:59:30;16.80;91.50
3416;DHT22;1721;51.238;9.562;2022-09-25T10:02:17;16.80;91.40
3416;DHT22;1721;51.238;9.562;2022-09-25T10:04:45;16.90;91.30
3416;DHT22;1721;51.238;9.562;2022-09-25T10:07:15;17.00;91.40
3416;DHT22;1721;51.238;9.562;2022-09-25T10:09:43;17.00;91.40
3416;DHT22;1721;51.238;9.562;2022-09-25T10:12:18;17.00;91.30
3416;DHT22;1721;51.238;9.562;2022-09-25T10:14:48;16.90;91.30
3416;DHT22;1721;51.238;9.562;2022-09-25T10:17:15;17.00;91.60
3416;DHT22;1721;51.238;9.562;2022-09-25T10:19:50;17.00;91.50
3416;DHT22;1721;51.238;9.562;2022-09-25T10:22:21;16.90;91.20
3416;DHT22;1721;51.238;9.562;2022-09-25T10:24:52;16.90;91.50
3416;DHT22;1721;51.238;9.562;2022-09-25T10:35:18;17.10;90.40
3416;DHT22;1721;51.238;9.562;2022-09-25T10:37:50;17.00;90.40
3416;DHT22;1721;51.238;9.562;2022-09-25T10:40:24;16.90;90.80
3416;DHT22;1721;51.238;9.562;2022-09-25T10:43:04;16.90;90.80
3416;DHT22;1721;51.238;9.562;2022-09-25T10:45:34;16.90;91.00
3416;DHT22;1721;51.238;9.562;2022-09-25T10:48:01;16.90;91.30
3416;DHT22;1721;51.238;9.562;2022-09-25T10:51:09;17.10;91.40
3416;DHT22;1721;51.238;9.562;2022-09-25T10:53:35;17.10;91.30
3416;DHT22;1721;51.238;9.562;2022-09-25T10:56:07;17.40;90.90
3416;DHT22;1721;51.238;9.562;2022-09-25T10:58:40;17.50;90.70
3416;DHT22;1721;51.238;9.562;2022-09-25T11:01:08;17.60;90.80
3416;DHT22;1721;51.238;9.562;2022-09-25T11:03:44;17.70;90.30
3416;DHT22;1721;51.238;9.562;2022-09-25T11:06:22;17.50;90.10
3416;DHT22;1721;51.238;9.562;2022-09-25T11:09:12;17.40;90.40
3416;DHT22;1721;51.238;9.562;2022-09-25T11:11:39;17.30;90.30
3416;DHT22;1721;51.238;9.562;2022-09-25T11:14:15;17.50;90.10
3416;DHT22;1721;51.238;9.562;2022-09-25T11:16:47;17.50;90.00
3416;DHT22;1721;51.238;9.562;2022-09-25T11:22:15;17.80;90.10
3416;DHT22;1721;51.238;9.562;2022-09-25T11:27:48;17.80;89.30
3416;DHT22;1721;51.238;9.562;2022-09-25T11:30:18;17.80;88.50
3416;DHT22;1721;51.238;9.562;2022-09-25T11:32:51;17.60;88.30
3416;DHT22;1721;51.238;9.562;2022-09-25T11:41:38;17.30;89.80
3416;DHT22;1721;51.238;9.562;2022-09-25T11:47:15;17.50;90.20
3416;DHT22;1721;51.238;9.562;2022-09-25T11:49:42;17.10;90.10
3416;DHT22;1721;51.238;9.562;2022-09-25T11:52:29;17.20;90.10
3416;DHT22;1721;51.238;9.562;2022-09-25T11:55:35;17.20;89.30
3416;DHT22;1721;51.238;9.562;2022-09-25T11:58:12;17.00;89.80
3416;DHT22;1721;51.238;9.562;2022-09-25T12:09:10;16.60;91.00
3416;DHT22;1721;51.238;9.562;2022-09-25T12:14:51;16.70;91.00
3416;DHT22;1721;51.238;9.562;2022-09-25T12:20:39;16.70;90.40
3416;DHT22;1721;51.238;9.562;2022-09-25T12:23:30;16.60;90.10
3416;DHT22;1721;51.238;9.562;2022-09-25T12:26:18;16.60;90.40
3416;DHT22;1721;51.238;9.562;2022-09-25T12:31:36;16.80;90.50
3416;DHT22;1721;51.238;9.562;2022-09-25T12:38:15;16.90;90.30
3416;DHT22;1721;51.238;9.562;2022-09-25T12:40:24;17.00;90.40
3416;DHT22;1721;51.238;9.562;2022-09-25T12:50:25;16.80;90.70
3416;DHT22;1721;51.238;9.562;2022-09-25T12:53:19;16.80;90.50
3416;DHT22;1721;51.238;9.562;2022-09-25T12:56:02;16.60;90.70
3416;DHT22;1721;51.238;9.562;2022-09-25T13:04:17;16.30;91.30
3416;DHT22;1721;51.238;9.562;2022-09-25T13:09:44;16.50;91.50
3416;DHT22;1721;51.238;9.562;2022-09-25T13:14:55;16.60;91.40
3416;DHT22;1721;51.238;9.562;2022-09-25T13:17:22;16.60;91.40
3416;DHT22;1721;51.238;9.562;2022-09-25T13:19:48;16.60;91.40
3416;DHT22;1721;51.238;9.562;2022-09-25T13:22:21;16.70;91.60
3416;DHT22;1721;51.238;9.562;2022-09-25T13:25:12;16.70;91.50
3416;DHT22;1721;51.238;9.562;2022-09-25T13:27:42;16.80;91.30
3416;DHT22;1721;51.238;9.562;2022-09-25T13:30:19;16.70;91.10
3416;DHT22;1721;51.238;9.562;2022-09-25T13:32:51;16.60;91.10
3416;DHT22;1721;51.238;9.562;2022-09-25T13:35:19;16.70;90.50
3416;DHT22;1721;51.238;9.562;2022-09-25T13:37:47;16.70;90.30
3416;DHT22;1721;51.238;9.562;2022-09-25T13:40:22;16.70;90.20
3416;DHT22;1721;51.238;9.562;2022-09-25T13:43:24;16.70;88.00
3416;DHT22;1721;51.238;9.562;2022-09-25T13:48:42;16.70;87.90
3416;DHT22;1721;51.238;9.562;2022-09-25T13:53:55;16.70;86.70
3416;DHT22;1721;51.238;9.562;2022-09-25T13:56:25;16.70;86.60
3416;DHT22;1721;51.238;9.562;2022-09-25T13:58:59;16.70;86.80
3416;DHT22;1721;51.238;9.562;2022-09-25T14:06:41;17.00;87.40
3416;DHT22;1721;51.238;9.562;2022-09-25T14:09:21;17.00;86.20
3416;DHT22;1721;51.238;9.562;2022-09-25T14:14:30;17.10;86.50
3416;DHT22;1721;51.238;9.562;2022-09-25T14:16:57;17.10;86.20
3416;DHT22;1721;51.238;9.562;2022-09-25T14:19:28;17.00;86.20
3416;DHT22;1721;51.238;9.562;2022-09-25T14:21:55;16.90;86.30
3416;DHT22;1721;51.238;9.562;2022-09-25T14:24:26;17.00;86.50
3416;DHT22;1721;51.238;9.562;2022-09-25T14:26:57;17.00;86.60
3416;DHT22;1721;51.238;9.562;2022-09-25T14:29:36;17.10;86.80
3416;DHT22;1721;51.238;9.562;2022-09-25T14:41:36;17.30;88.10
3416;DHT22;1721;51.238;9.562;2022-09-25T14:44:23;17.30;86.70
3416;DHT22;1721;51.238;9.562;2022-09-25T14:46:53;17.40;87.30
3416;DHT22;1721;51.238;9.562;2022-09-25T14:49:34;17.40;87.50
3416;DHT22;1721;51.238;9.562;2022-09-25T14:52:07;17.40;87.90
3416;DHT22;1721;51.238;9.562;2022-09-25T14:54:36;17.50;88.20
3416;DHT22;1721;51.238;9.562;2022-09-25T14:57:05;17.50;88.20
3416;DHT22;1721;51.238;9.562;2022-09-25T14:59:37;17.50;87.70
3416;DHT22;1721;51.238;9.562;2022-09-25T15:02:30;17.50;87.50
3416;DHT22;1721;51.238;9.562;2022-09-25T15:05:44;17.40;88.60
3416;DHT22;1721;51.238;9.562;2022-09-25T15:07:45;17.40;89.70
3416;DHT22;1721;51.238;9.562;2022-09-25T15:12:49;17.10;90.70
3416;DHT22;1721;51.238;9.562;2022-09-25T15:15:16;17.10;90.80
3416;DHT22;1721;51.238;9.562;2022-09-25T15:17:54;17.00;91.10
3416;DHT22;1721;51.238;9.562;2022-09-25T15:20:26;17.10;91.00
3416;DHT22;1721;51.238;9.562;2022-09-25T15:22:58;17.20;90.80
3416;DHT22;1721;51.238;9.562;2022-09-25T15:25:34;17.20;90.60
3416;DHT22;1721;51.238;9.562;2022-09-25T15:28:04;17.20;90.50
3416;DHT22;1721;51.238;9.562;2022-09-25T15:30:32;17.20;90.80
3416;DHT22;1721;51.238;9.562;2022-09-25T15:32:59;17.20;90.90
3416;DHT22;1721;51.238;9.562;2022-09-25T15:35:27;17.20;91.00
3416;DHT22;1721;51.238;9.562;2022-09-25T15:38:12;17.10;91.30
3416;DHT22;1721;51.238;9.562;2022-09-25T15:40:39;17.20;91.30
3416;DHT22;1721;51.238;9.562;2022-09-25T15:43:13;17.20;91.40
3416;DHT22;1721;51.238;9.562;2022-09-25T15:48:48;17.30;91.30
3416;DHT22;1721;51.238;9.562;2022-09-25T15:51:18;17.20;91.30
3416;DHT22;1721;51.238;9.562;2022-09-25T15:53:50;17.20;91.50
3416;DHT22;1721;51.238;9.562;2022-09-25T15:56:17;17.20;91.50
3416;DHT22;1721;51.238;9.562;2022-09-25T15:58:52;17.20;91.50
3416;DHT22;1721;51.238;9.562;2022-09-25T16:01:22;17.10;91.80
3416;DHT22;1721;51.238;9.562;2022-09-25T16:04:08;16.90;91.90
3416;DHT22;1721;51.238;9.562;2022-09-25T16:06:53;16.70;91.90
3416;DHT22;1721;51.238;9.562;2022-09-25T16:09:31;16.70;91.90
3416;DHT22;1721;51.238;9.562;2022-09-25T16:12:27;16.60;91.90
3416;DHT22;1721;51.238;9.562;2022-09-25T16:14:55;16.40;92.40
3416;DHT22;1721;51.238;9.562;2022-09-25T16:17:40;16.20;92.20
3416;DHT22;1721;51.238;9.562;2022-09-25T16:20:27;16.10;92.60
3416;DHT22;1721;51.238;9.562;2022-09-25T16:22:55;16.10;92.80
3416;DHT22;1721;51.238;9.562;2022-09-25T16:25:41;16.10;93.10
3416;DHT22;1721;51.238;9.562;2022-09-25T16:28:14;16.20;93.00
3416;DHT22;1721;51.238;9.562;2022-09-25T16:33:34;16.20;93.00
3416;DHT22;1721;51.238;9.562;2022-09-25T16:36:11;16.20;93.10
3416;DHT22;1721;51.238;9.562;2022-09-25T16:38:41;16.20;93.20
3416;DHT22;1721;51.238;9.562;2022-09-25T16:41:20;16.20;93.20
3416;DHT22;1721;51.238;9.562;2022-09-25T16:44:11;16.00;93.20
3416;DHT22;1721;51.238;9.562;2022-09-25T16:46:39;15.80;93.00
3416;DHT22;1721;51.238;9.562;2022-09-25T16:49:06;15.40;93.10
3416;DHT22;1721;51.238;9.562;2022-09-25T16:51:31;15.40;93.50
3416;DHT22;1721;51.238;9.562;2022-09-25T16:53:59;15.30;93.70
3416;DHT22;1721;51.238;9.562;2022-09-25T16:56:27;15.10;94.10
3416;DHT22;1721;51.238;9.562;2022-09-25T16:58:54;15.00;94.20
3416;DHT22;1721;51.238;9.562;2022-09-25T17:01:21;14.80;94.30
3416;DHT22;1721;51.238;9.562;2022-09-25T17:03:47;14.80;94.40
3416;DHT22;1721;51.238;9.562;2022-09-25T17:06:17;14.80;94.10
3416;DHT22;1721;51.238;9.562;2022-09-25T17:08:43;14.70;93.70
3416;DHT22;1721;51.238;9.562;2022-09-25T17:11:11;14.70;93.80
3416;DHT22;1721;51.238;9.562;2022-09-25T17:13:37;14.70;94.10
3416;DHT22;1721;51.238;9.562;2022-09-25T17:16:03;14.70;94.20
3416;DHT22;1721;51.238;9.562;2022-09-25T17:18:29;14.70;93.90
3416;DHT22;1721;51.238;9.562;2022-09-25T17:20:55;14.50;94.00
3416;DHT22;1721;51.238;9.562;2022-09-25T17:23:23;14.50;94.00
3416;DHT22;1721;51.238;9.562;2022-09-25T17:25:52;14.40;94.20
3416;DHT22;1721;51.238;9.562;2022-09-25T17:28:18;14.30;94.00
3416;DHT22;1721;51.238;9.562;2022-09-25T17:30:44;14.20;93.70
3416;DHT22;1721;51.238;9.562;2022-09-25T17:33:14;14.10;93.90
3416;DHT22;1721;51.238;9.562;2022-09-25T17:38:09;14.00;93.90
3416;DHT22;1721;51.238;9.562;2022-09-25T17:40:37;14.00;94.10
3416;DHT22;1721;51.238;9.562;2022-09-25T17:43:03;14.10;94.30
3416;DHT22;1721;51.238;9.562;2022-09-25T17:45:34;14.00;94.60
3416;DHT22;1721;51.238;9.562;2022-09-25T17:48:01;14.00;94.70
3416;DHT22;1721;51.238;9.562;2022-09-25T17:50:26;14.20;94.50
3416;DHT22;1721;51.238;9.562;2022-09-25T17:52:52;14.40;94.40
3416;DHT22;1721;51.238;9.562;2022-09-25T17:55:19;14.60;94.20
3416;DHT22;1721;51.238;9.562;2022-09-25T17:57:45;14.70;94.10
3416;DHT22;1721;51.238;9.562;2022-09-25T18:00:12;14.80;94.50
3416;DHT22;1721;51.238;9.562;2022-09-25T18:02:38;14.80;94.30
3416;DHT22;1721;51.238;9.562;2022-09-25T18:05:04;14.80;94.30
3416;DHT22;1721;51.238;9.562;2022-09-25T18:07:29;14.70;94.10
3416;DHT22;1721;51.238;9.562;2022-09-25T18:09:56;14.70;94.10
3416;DHT22;1721;51.238;9.562;2022-09-25T18:12:21;14.80;94.30
3416;DHT22;1721;51.238;9.562;2022-09-25T18:14:47;15.00;94.10
3416;DHT22;1721;51.238;9.562;2022-09-25T18:17:15;15.10;93.90
3416;DHT22;1721;51.238;9.562;2022-09-25T18:19:41;15.30;93.80
3416;DHT22;1721;51.238;9.562;2022-09-25T18:22:26;15.30;93.60
3416;DHT22;1721;51.238;9.562;2022-09-25T18:24:53;15.30;93.80
3416;DHT22;1721;51.238;9.562;2022-09-25T18:27:27;15.10;93.80
3416;DHT22;1721;51.238;9.562;2022-09-25T18:29:53;15.00;94.00
3416;DHT22;1721;51.238;9.562;2022-09-25T18:32:19;15.10;93.90
3416;DHT22;1721;51.238;9.562;2022-09-25T18:34:45;15.20;93.80
3416;DHT22;1721;51.238;9.562;2022-09-25T18:37:11;15.30;93.60
3416;DHT22;1721;51.238;9.562;2022-09-25T18:39:37;15.30;93.50
3416;DHT22;1721;51.238;9.562;2022-09-25T18:42:03;15.30;93.40
3416;DHT22;1721;51.238;9.562;2022-09-25T18:44:28;15.30;93.30
3416;DHT22;1721;51.238;9.562;2022-09-25T18:46:55;15.20;93.30
3416;DHT22;1721;51.238;9.562;2022-09-25T18:49:21;15.30;93.30
3416;DHT22;1721;51.238;9.562;2022-09-25T18:51:46;15.30;93.20
3416;DHT22;1721;51.238;9.562;2022-09-25T18:54:12;15.30;93.10
3416;DHT22;1721;51.238;9.562;2022-09-25T18:56:38;15.30;93.10